createdAt,value
2019-02-07T00:00:37.493Z,7.40
2019-02-07T00:01:37.517Z,8.00
2019-02-07T00:02:37.534Z,8.20
2019-02-07T00:03:37.548Z,7.60
2019-02-07T00:04:38.263Z,8.30
2019-02-07T00:05:37.575Z,8.50
2019-02-07T00:06:37.591Z,7.90
2019-02-07T00:07:37.611Z,7.10
2019-02-07T00:08:37.627Z,7.90
2019-02-07T00:09:37.640Z,7.60
2019-02-07T00:10:37.659Z,8.00
2019-02-07T00:11:37.675Z,7.30
2019-02-07T00:12:37.692Z,7.20
2019-02-07T00:13:37.705Z,8.20
2019-02-07T00:14:39.868Z,7.00
2019-02-07T00:15:37.744Z,7.60
2019-02-07T00:16:37.756Z,8.10
2019-02-07T00:17:37.770Z,7.00
2019-02-07T00:18:37.790Z,7.90
2019-02-07T00:19:37.803Z,7.40
2019-02-07T00:20:37.822Z,7.40
2019-02-07T00:21:37.838Z,7.10
2019-02-07T00:22:39.294Z,7.90
2019-02-07T00:23:37.870Z,7.30
2019-02-07T00:24:42.885Z,7.10
2019-02-07T00:25:37.900Z,7.50
2019-02-07T00:26:37.919Z,7.90
2019-02-07T00:27:37.933Z,8.10
2019-02-07T00:28:37.950Z,8.10
2019-02-07T00:29:37.975Z,7.70
2019-02-07T00:30:37.982Z,7.70
2019-02-07T00:31:37.998Z,8.60
2019-02-07T00:32:38.016Z,8.20
2019-02-07T00:33:38.033Z,7.70
2019-02-07T00:34:38.050Z,8.50
2019-02-07T00:35:38.071Z,8.10
2019-02-07T00:36:38.081Z,8.20
2019-02-07T00:37:38.096Z,8.20
2019-02-07T00:38:38.112Z,8.20
2019-02-07T00:39:38.151Z,8.00
2019-02-07T00:40:38.149Z,9.30
2019-02-07T00:41:38.161Z,9.50
2019-02-07T00:42:38.181Z,8.10
2019-02-07T00:43:38.197Z,8.50
2019-02-07T00:44:38.215Z,8.40
2019-02-07T00:45:38.228Z,7.40
2019-02-07T00:46:38.247Z,8.10
2019-02-07T00:47:38.263Z,8.10
2019-02-07T00:48:38.287Z,7.50
2019-02-07T00:49:38.294Z,8.20
2019-02-07T00:50:38.309Z,7.70
2019-02-07T00:51:38.330Z,10.00
2019-02-07T00:52:38.349Z,8.80
2019-02-07T00:53:38.365Z,8.00
2019-02-07T00:54:38.379Z,8.30
2019-02-07T00:55:38.393Z,7.50
2019-02-07T00:56:39.861Z,8.10
2019-02-07T00:57:38.423Z,8.90
2019-02-07T00:58:38.440Z,8.10
2019-02-07T00:59:38.458Z,7.00
2019-02-07T01:00:38.473Z,7.60
2019-02-07T01:01:38.498Z,7.70
2019-02-07T01:02:38.505Z,8.10
2019-02-07T01:03:38.521Z,8.50
2019-02-07T01:04:38.540Z,8.20
2019-02-07T01:05:38.556Z,7.90
2019-02-07T01:06:38.570Z,7.50
2019-02-07T01:07:38.589Z,8.30
2019-02-07T01:08:38.603Z,8.20
2019-02-07T01:09:38.618Z,9.10
2019-02-07T01:10:38.641Z,8.10
2019-02-07T01:11:38.653Z,7.80
2019-02-07T01:12:38.671Z,7.50
2019-02-07T01:13:38.689Z,8.80
2019-02-07T01:14:38.704Z,8.50
2019-02-07T01:15:38.719Z,8.30
2019-02-07T01:16:38.733Z,7.70
2019-02-07T01:17:38.748Z,8.20
2019-02-07T01:18:38.767Z,7.60
2019-02-07T01:19:38.784Z,7.50
2019-02-07T01:20:38.799Z,8.50
2019-02-07T01:21:38.817Z,7.90
2019-02-07T01:22:38.837Z,8.60
2019-02-07T01:23:38.850Z,9.20
2019-02-07T01:24:38.862Z,8.60
2019-02-07T01:25:38.885Z,8.20
2019-02-07T01:26:38.897Z,8.00
2019-02-07T01:27:38.911Z,8.20
2019-02-07T01:28:38.928Z,7.50
2019-02-07T01:29:38.945Z,7.90
2019-02-07T01:30:38.959Z,8.50
2019-02-07T01:31:38.990Z,8.60
2019-02-07T01:32:38.995Z,8.50
2019-02-07T01:33:39.010Z,7.80
2019-02-07T01:34:39.027Z,8.40
2019-02-07T01:35:39.041Z,8.40
2019-02-07T01:36:39.058Z,7.60
2019-02-07T01:37:39.075Z,8.50
2019-02-07T01:38:39.090Z,8.10
2019-02-07T01:39:39.114Z,8.70
2019-02-07T01:40:39.122Z,8.40
2019-02-07T01:41:39.138Z,8.20
2019-02-07T01:42:39.154Z,8.70
2019-02-07T01:43:39.173Z,8.50
2019-02-07T01:44:39.193Z,7.50
2019-02-07T01:45:39.205Z,8.20
2019-02-07T01:46:39.222Z,8.70
2019-02-07T01:47:39.238Z,8.90
2019-02-07T01:48:39.261Z,7.70
2019-02-07T01:49:39.270Z,8.30
2019-02-07T01:50:39.288Z,8.80
2019-02-07T01:51:39.303Z,8.10
2019-02-07T01:52:39.317Z,8.10
2019-02-07T01:53:39.334Z,8.40
2019-02-07T01:54:39.352Z,9.10
2019-02-07T01:55:39.365Z,7.80
2019-02-07T01:56:39.382Z,8.20
2019-02-07T01:57:39.406Z,8.50
2019-02-07T01:58:39.415Z,8.00
2019-02-07T01:59:39.430Z,7.90
2019-02-07T02:00:39.449Z,8.80
2019-02-07T02:01:39.467Z,7.90
2019-02-07T02:02:39.480Z,8.30
2019-02-07T02:03:39.495Z,8.20
2019-02-07T02:04:39.513Z,9.10
2019-02-07T02:05:39.526Z,8.50
2019-02-07T02:06:39.549Z,7.40
2019-02-07T02:07:39.562Z,8.50
2019-02-07T02:08:39.577Z,8.80
2019-02-07T02:09:39.591Z,8.90
2019-02-07T02:10:39.610Z,10.30
2019-02-07T02:11:39.626Z,9.60
2019-02-07T02:12:39.640Z,9.50
2019-02-07T02:13:39.655Z,8.10
2019-02-07T02:14:39.673Z,8.70
2019-02-07T02:15:39.689Z,9.20
2019-02-07T02:16:39.707Z,8.50
2019-02-07T02:17:39.719Z,8.30
2019-02-07T02:18:39.736Z,8.70
2019-02-07T02:19:39.761Z,8.50
2019-02-07T02:20:39.770Z,8.20
2019-02-07T02:21:39.786Z,8.60
2019-02-07T02:22:39.808Z,8.90
2019-02-07T02:23:39.816Z,9.10
2019-02-07T02:24:39.835Z,9.80
2019-02-07T02:25:39.847Z,9.60
2019-02-07T02:26:39.866Z,9.10
2019-02-07T02:27:39.880Z,8.90
2019-02-07T02:28:39.901Z,8.80
2019-02-07T02:29:39.915Z,8.80
2019-02-07T02:30:39.931Z,8.10
2019-02-07T02:31:39.944Z,8.80
2019-02-07T02:32:39.961Z,9.20
2019-02-07T02:33:39.984Z,9.10
2019-02-07T02:34:39.992Z,9.30
2019-02-07T02:35:40.013Z,8.60
2019-02-07T02:36:40.024Z,9.20
2019-02-07T02:37:40.040Z,9.30
2019-02-07T02:38:40.147Z,9.20
2019-02-07T02:39:40.075Z,9.30
2019-02-07T02:40:40.088Z,8.60
2019-02-07T02:41:40.103Z,9.10
2019-02-07T02:42:40.120Z,8.60
2019-02-07T02:43:40.135Z,9.10
2019-02-07T02:44:40.155Z,9.10
2019-02-07T02:45:40.172Z,9.40
2019-02-07T02:46:40.184Z,8.80
2019-02-07T02:47:40.199Z,8.70
2019-02-07T02:48:40.217Z,9.10
2019-02-07T02:49:40.235Z,9.40
2019-02-07T02:50:40.245Z,9.00
2019-02-07T02:51:40.274Z,9.50
2019-02-07T02:52:40.520Z,8.90
2019-02-07T02:53:40.301Z,13.90
2019-02-07T02:54:40.308Z,15.00
2019-02-07T02:55:40.325Z,9.30
2019-02-07T02:56:40.343Z,9.00
2019-02-07T02:57:40.364Z,9.10
2019-02-07T02:58:40.376Z,9.20
2019-02-07T02:59:40.386Z,9.20
2019-02-07T03:00:40.402Z,8.80
2019-02-07T03:01:40.418Z,9.40
2019-02-07T03:02:40.433Z,9.20
2019-02-07T03:03:40.450Z,9.10
2019-02-07T03:04:40.472Z,8.20
2019-02-07T03:05:40.481Z,9.40
2019-02-07T03:06:40.495Z,9.00
2019-02-07T03:07:40.511Z,8.50
2019-02-07T03:08:40.531Z,9.00
2019-02-07T03:09:40.545Z,9.50
2019-02-07T03:10:40.560Z,8.70
2019-02-07T03:11:40.685Z,8.90
2019-02-07T03:12:40.593Z,10.20
2019-02-07T03:13:40.605Z,9.30
2019-02-07T03:14:40.623Z,9.90
2019-02-07T03:15:49.357Z,9.20
2019-02-07T03:16:40.653Z,9.00
2019-02-07T03:17:40.666Z,10.30
2019-02-07T03:18:40.684Z,9.60
2019-02-07T03:19:40.702Z,9.30
2019-02-07T03:20:40.717Z,9.10
2019-02-07T03:21:40.734Z,9.80
2019-02-07T03:22:40.759Z,9.90
2019-02-07T03:23:40.759Z,9.60
2019-02-07T03:24:40.778Z,9.80
2019-02-07T03:25:40.793Z,10.00
2019-02-07T03:26:40.806Z,9.60
2019-02-07T03:27:40.828Z,9.20
2019-02-07T03:28:40.839Z,9.40
2019-02-07T03:29:40.854Z,9.80
2019-02-07T03:30:40.871Z,9.70
2019-02-07T03:31:40.886Z,9.10
2019-02-07T03:32:40.900Z,8.80
2019-02-07T03:33:40.913Z,9.60
2019-02-07T03:34:40.930Z,9.40
2019-02-07T03:35:40.944Z,10.20
2019-02-07T03:36:40.963Z,10.00
2019-02-07T03:37:40.976Z,9.70
2019-02-07T03:38:40.992Z,9.90
2019-02-07T03:39:41.010Z,9.90
2019-02-07T03:40:41.031Z,10.50
2019-02-07T03:41:41.040Z,10.20
2019-02-07T03:42:41.055Z,10.40
2019-02-07T03:43:41.068Z,10.50
2019-02-07T03:44:41.088Z,9.90
2019-02-07T03:45:41.108Z,9.70
2019-02-07T03:46:41.113Z,9.80
2019-02-07T03:47:41.132Z,9.70
2019-02-07T03:48:41.144Z,11.00
2019-02-07T03:49:41.161Z,10.90
2019-02-07T03:50:41.181Z,9.70
2019-02-07T03:51:41.196Z,10.70
2019-02-07T03:52:41.214Z,10.80
2019-02-07T03:53:41.233Z,9.70
2019-02-07T03:54:41.238Z,10.40
2019-02-07T03:55:41.260Z,9.80
2019-02-07T03:56:41.273Z,10.40
2019-02-07T03:57:41.285Z,11.10
2019-02-07T03:58:41.298Z,10.70
2019-02-07T03:59:41.320Z,10.80
2019-02-07T04:00:41.331Z,10.10
2019-02-07T04:01:41.352Z,9.60
2019-02-07T04:02:41.366Z,9.90
2019-02-07T04:03:41.379Z,10.70
2019-02-07T04:04:41.391Z,10.20
2019-02-07T04:05:41.409Z,11.00
2019-02-07T04:06:41.423Z,10.50
2019-02-07T04:07:41.437Z,10.00
2019-02-07T04:08:41.455Z,9.00
2019-02-07T04:09:41.472Z,9.60
2019-02-07T04:10:43.258Z,10.40
2019-02-07T04:11:41.505Z,9.10
2019-02-07T04:12:41.519Z,10.50
2019-02-07T04:13:41.532Z,11.10
2019-02-07T04:14:41.549Z,10.20
2019-02-07T04:15:41.560Z,10.20
2019-02-07T04:16:41.583Z,10.00
2019-02-07T04:17:41.594Z,9.80
2019-02-07T04:18:41.609Z,9.80
2019-02-07T04:19:41.623Z,11.10
2019-02-07T04:20:41.639Z,10.80
2019-02-07T04:21:41.670Z,9.60
2019-02-07T04:22:41.679Z,10.40
2019-02-07T04:23:41.685Z,10.20
2019-02-07T04:24:41.701Z,10.30
2019-02-07T04:25:41.716Z,10.40
2019-02-07T04:26:41.736Z,10.20
2019-02-07T04:27:41.752Z,9.60
2019-02-07T04:28:41.772Z,9.80
2019-02-07T04:29:41.781Z,10.00
2019-02-07T04:30:41.796Z,9.90
2019-02-07T04:31:41.816Z,10.70
2019-02-07T04:32:41.829Z,9.70
2019-02-07T04:33:41.843Z,10.80
2019-02-07T04:34:41.860Z,10.00
2019-02-07T04:35:41.873Z,10.80
2019-02-07T04:36:41.890Z,9.60
2019-02-07T04:37:41.905Z,10.30
2019-02-07T04:38:41.921Z,9.40
2019-02-07T04:39:41.939Z,10.00
2019-02-07T04:40:41.953Z,9.70
2019-02-07T04:41:41.969Z,9.80
2019-02-07T04:42:41.981Z,10.30
2019-02-07T04:43:42.000Z,10.10
2019-02-07T04:44:42.017Z,10.20
2019-02-07T04:45:42.030Z,10.20
2019-02-07T04:46:42.045Z,10.00
2019-02-07T04:47:42.065Z,9.90
2019-02-07T04:48:42.077Z,10.00
2019-02-07T04:49:42.096Z,10.50
2019-02-07T04:50:42.107Z,10.80
2019-02-07T04:51:42.131Z,10.60
2019-02-07T04:52:42.146Z,10.60
2019-02-07T04:53:42.279Z,9.80
2019-02-07T04:54:42.169Z,10.20
2019-02-07T04:55:42.187Z,10.20
2019-02-07T04:56:42.203Z,10.30
2019-02-07T04:57:42.221Z,10.90
2019-02-07T04:58:42.241Z,9.90
2019-02-07T04:59:42.252Z,10.20
2019-02-07T05:00:42.266Z,9.80
2019-02-07T05:01:42.290Z,10.60
2019-02-07T05:02:42.304Z,9.70
2019-02-07T05:03:42.311Z,10.60
2019-02-07T05:04:42.329Z,10.60
2019-02-07T05:05:42.343Z,10.00
2019-02-07T05:06:42.361Z,10.20
2019-02-07T05:07:42.378Z,9.90
2019-02-07T05:08:42.393Z,10.20
2019-02-07T05:09:42.410Z,10.20
2019-02-07T05:10:42.423Z,9.80
2019-02-07T05:11:42.442Z,9.30
2019-02-07T05:12:42.452Z,10.60
2019-02-07T05:13:42.467Z,10.60
2019-02-07T05:14:42.483Z,10.50
2019-02-07T05:15:42.506Z,9.70
2019-02-07T05:16:43.775Z,9.30
2019-02-07T05:17:42.532Z,10.30
2019-02-07T05:18:42.546Z,9.80
2019-02-07T05:19:42.566Z,9.40
2019-02-07T05:20:42.581Z,9.80
2019-02-07T05:21:42.596Z,9.90
2019-02-07T05:22:42.612Z,10.00
2019-02-07T05:23:42.631Z,10.40
2019-02-07T05:24:42.645Z,9.90
2019-02-07T05:25:42.661Z,10.90
2019-02-07T05:26:42.676Z,9.30
2019-02-07T05:27:42.689Z,9.40
2019-02-07T05:28:42.707Z,9.90
2019-02-07T05:29:42.724Z,9.90
2019-02-07T05:30:42.739Z,9.90
2019-02-07T05:31:42.757Z,9.20
2019-02-07T05:32:42.779Z,9.80
2019-02-07T05:33:42.795Z,9.60
2019-02-07T05:34:42.824Z,9.70
2019-02-07T05:35:42.816Z,10.20
2019-02-07T05:36:42.836Z,9.40
2019-02-07T05:37:42.850Z,9.00
2019-02-07T05:38:42.866Z,9.50
2019-02-07T05:39:42.885Z,9.10
2019-02-07T05:40:42.895Z,9.20
2019-02-07T05:41:42.910Z,9.60
2019-02-07T05:42:42.929Z,9.50
2019-02-07T05:43:42.942Z,10.20
2019-02-07T05:44:42.961Z,8.60
2019-02-07T05:45:42.985Z,9.40
2019-02-07T05:46:50.768Z,8.90
2019-02-07T05:47:43.059Z,8.70
2019-02-07T05:48:43.025Z,10.20
2019-02-07T05:49:43.040Z,9.10
2019-02-07T05:50:43.054Z,9.90
2019-02-07T05:51:43.071Z,9.20
2019-02-07T05:52:43.089Z,9.30
2019-02-07T05:53:43.101Z,10.00
2019-02-07T05:54:43.117Z,9.10
2019-02-07T05:55:43.133Z,9.10
2019-02-07T05:56:43.155Z,10.20
2019-02-07T05:57:43.165Z,9.30
2019-02-07T05:58:43.189Z,9.20
2019-02-07T05:59:43.203Z,9.20
2019-02-07T06:00:43.216Z,9.10
2019-02-07T06:01:43.228Z,9.50
2019-02-07T06:02:43.245Z,8.90
2019-02-07T06:03:43.261Z,8.70
2019-02-07T06:04:43.289Z,8.90
2019-02-07T06:05:43.295Z,9.00
2019-02-07T06:06:43.315Z,9.30
2019-02-07T06:07:43.324Z,8.90
2019-02-07T06:08:43.342Z,8.90
2019-02-07T06:09:43.357Z,9.80
2019-02-07T06:10:43.374Z,8.90
2019-02-07T06:11:43.398Z,8.90
2019-02-07T06:12:43.411Z,10.10
2019-02-07T06:13:43.427Z,8.10
2019-02-07T06:14:43.442Z,8.80
2019-02-07T06:15:43.532Z,9.30
2019-02-07T06:16:43.468Z,8.40
2019-02-07T06:17:43.483Z,8.70
2019-02-07T06:18:43.506Z,9.60
2019-02-07T06:19:43.515Z,9.10
2019-02-07T06:20:43.533Z,9.30
2019-02-07T06:21:43.546Z,9.10
2019-02-07T06:22:43.567Z,9.40
2019-02-07T06:23:43.581Z,9.00
2019-02-07T06:24:43.598Z,10.00
2019-02-07T06:25:43.617Z,9.80
2019-02-07T06:26:43.630Z,8.40
2019-02-07T06:27:43.642Z,9.40
2019-02-07T06:28:43.663Z,9.10
2019-02-07T06:29:43.675Z,9.30
2019-02-07T06:30:43.690Z,9.30
2019-02-07T06:31:43.708Z,9.20
2019-02-07T06:32:43.722Z,9.50
2019-02-07T06:33:43.737Z,9.50
2019-02-07T06:34:43.756Z,8.90
2019-02-07T06:35:43.779Z,9.40
2019-02-07T06:36:43.790Z,9.00
2019-02-07T06:37:43.805Z,9.70
2019-02-07T06:38:43.820Z,10.50
2019-02-07T06:39:43.834Z,9.00
2019-02-07T06:40:43.852Z,9.40
2019-02-07T06:41:43.866Z,10.40
2019-02-07T06:42:43.884Z,8.80
2019-02-07T06:43:43.903Z,9.50
2019-02-07T06:44:43.915Z,9.60
2019-02-07T06:45:43.930Z,9.10
2019-02-07T06:46:43.953Z,9.40
2019-02-07T06:47:43.960Z,9.40
2019-02-07T06:48:43.989Z,9.20
2019-02-07T06:49:43.998Z,10.70
2019-02-07T06:50:44.017Z,9.30
2019-02-07T06:51:44.024Z,9.60
2019-02-07T06:52:44.042Z,9.50
2019-02-07T06:53:44.055Z,9.40
2019-02-07T06:54:44.073Z,9.80
2019-02-07T06:55:44.093Z,9.60
2019-02-07T06:56:44.109Z,9.20
2019-02-07T06:57:44.120Z,8.40
2019-02-07T06:58:44.140Z,9.30
2019-02-07T06:59:44.152Z,9.90
2019-02-07T07:00:44.171Z,9.40
2019-02-07T07:01:44.182Z,8.80
2019-02-07T07:02:44.200Z,9.50
2019-02-07T07:03:44.214Z,11.30
2019-02-07T07:04:44.233Z,9.30
2019-02-07T07:05:44.244Z,9.30
2019-02-07T07:06:44.261Z,9.80
2019-02-07T07:07:44.283Z,9.70
2019-02-07T07:08:44.293Z,9.70
2019-02-07T07:09:44.313Z,9.00
2019-02-07T07:10:44.326Z,9.90
2019-02-07T07:11:44.400Z,10.20
2019-02-07T07:12:44.358Z,9.30
2019-02-07T07:13:44.375Z,9.90
2019-02-07T07:14:44.390Z,9.70
2019-02-07T07:15:44.407Z,10.00
2019-02-07T07:16:44.523Z,9.30
2019-02-07T07:17:44.435Z,10.80
2019-02-07T07:18:44.453Z,9.20
2019-02-07T07:19:44.470Z,9.20
2019-02-07T07:20:44.493Z,9.80
2019-02-07T07:21:44.504Z,9.80
2019-02-07T07:22:44.515Z,10.10
2019-02-07T07:23:44.534Z,11.60
2019-02-07T07:24:44.548Z,9.40
2019-02-07T07:25:44.564Z,10.10
2019-02-07T07:26:44.591Z,9.40
2019-02-07T07:27:44.605Z,9.70
2019-02-07T07:28:44.615Z,10.80
2019-02-07T07:29:44.628Z,10.50
2019-02-07T07:30:44.642Z,10.20
2019-02-07T07:31:44.660Z,11.60
2019-02-07T07:32:44.674Z,10.80
2019-02-07T07:33:44.699Z,10.70
2019-02-07T07:34:44.709Z,11.80
2019-02-07T07:35:44.724Z,11.20
2019-02-07T07:36:44.742Z,11.20
2019-02-07T07:37:44.756Z,11.00
2019-02-07T07:38:44.773Z,10.90
2019-02-07T07:39:44.791Z,11.90
2019-02-07T07:40:44.803Z,11.60
2019-02-07T07:41:44.820Z,11.50
2019-02-07T07:42:44.834Z,11.40
2019-02-07T07:43:44.850Z,12.20
2019-02-07T07:44:44.869Z,11.70
2019-02-07T07:45:44.884Z,11.90
2019-02-07T07:46:44.901Z,12.30
2019-02-07T07:47:44.922Z,12.80
2019-02-07T07:48:44.930Z,11.90
2019-02-07T07:49:44.954Z,12.50
2019-02-07T07:50:44.964Z,12.80
2019-02-07T07:51:45.017Z,12.50
2019-02-07T07:52:44.995Z,13.00
2019-02-07T07:53:45.014Z,12.30
2019-02-07T07:54:45.031Z,11.50
2019-02-07T07:55:45.044Z,11.20
2019-02-07T07:56:45.064Z,11.00
2019-02-07T07:57:45.077Z,11.40
2019-02-07T07:58:45.092Z,11.00
2019-02-07T07:59:45.112Z,11.30
2019-02-07T08:00:45.136Z,11.50
2019-02-07T08:01:45.143Z,11.50
2019-02-07T08:02:45.159Z,11.30
2019-02-07T08:03:45.173Z,11.20
2019-02-07T08:04:45.190Z,11.80
2019-02-07T08:05:45.204Z,11.90
2019-02-07T08:06:45.221Z,12.80
2019-02-07T08:07:45.238Z,12.50
2019-02-07T08:08:45.256Z,11.00
2019-02-07T08:09:45.274Z,11.30
2019-02-07T08:10:45.286Z,11.70
2019-02-07T08:11:45.306Z,12.50
2019-02-07T08:12:45.325Z,11.30
2019-02-07T08:13:45.335Z,11.40
2019-02-07T08:14:45.358Z,11.30
2019-02-07T08:15:45.376Z,10.50
2019-02-07T08:16:45.393Z,11.60
2019-02-07T08:17:47.380Z,13.10
2019-02-07T08:18:45.418Z,11.10
2019-02-07T08:19:45.440Z,10.40
2019-02-07T08:20:45.454Z,10.90
2019-02-07T08:21:45.479Z,10.20
2019-02-07T08:22:45.484Z,10.90
2019-02-07T08:23:45.499Z,11.80
2019-02-07T08:24:45.513Z,10.80
2019-02-07T08:25:45.529Z,11.10
2019-02-07T08:26:45.555Z,11.00
2019-02-07T08:27:45.564Z,11.20
2019-02-07T08:28:45.578Z,11.40
2019-02-07T08:29:45.594Z,10.90
2019-02-07T08:30:45.613Z,10.10
2019-02-07T08:31:45.629Z,9.40
2019-02-07T08:32:45.648Z,10.30
2019-02-07T08:33:45.662Z,10.10
2019-02-07T08:34:45.676Z,9.90
2019-02-07T08:35:45.692Z,9.50
2019-02-07T08:36:45.708Z,9.60
2019-02-07T08:37:45.727Z,9.60
2019-02-07T08:38:45.743Z,10.20
2019-02-07T08:39:45.757Z,11.00
2019-02-07T08:40:45.782Z,10.70
2019-02-07T08:41:45.792Z,10.50
2019-02-07T08:42:45.806Z,9.80
2019-02-07T08:43:45.823Z,10.30
2019-02-07T08:44:45.842Z,9.80
2019-02-07T08:45:45.866Z,10.20
2019-02-07T08:46:45.873Z,10.30
2019-02-07T08:47:45.896Z,10.20
2019-02-07T08:48:45.904Z,10.00
2019-02-07T08:49:45.923Z,9.80
2019-02-07T08:50:46.091Z,9.60
2019-02-07T08:51:45.961Z,10.90
2019-02-07T08:52:45.972Z,10.30
2019-02-07T08:53:45.994Z,10.00
2019-02-07T08:54:46.003Z,10.50
2019-02-07T08:55:46.020Z,9.50
2019-02-07T08:56:46.037Z,10.40
2019-02-07T08:57:46.053Z,9.90
2019-02-07T08:58:46.069Z,10.60
2019-02-07T08:59:46.096Z,10.20
2019-02-07T09:00:46.112Z,10.10
2019-02-07T09:01:46.118Z,10.00
2019-02-07T09:02:51.784Z,10.30
2019-02-07T09:03:46.249Z,10.30
2019-02-07T09:04:46.169Z,10.60
2019-02-07T09:05:46.184Z,10.30
2019-02-07T09:06:46.200Z,10.40
2019-02-07T09:07:46.217Z,9.90
2019-02-07T09:08:46.234Z,10.60
2019-02-07T09:09:46.251Z,10.60
2019-02-07T09:10:46.264Z,10.10
2019-02-07T09:11:46.280Z,9.70
2019-02-07T09:12:46.403Z,9.90
2019-02-07T09:13:46.317Z,9.50
2019-02-07T09:14:46.332Z,10.00
2019-02-07T09:15:46.350Z,9.70
2019-02-07T09:16:46.366Z,9.50
2019-02-07T09:17:46.382Z,10.00
2019-02-07T09:18:46.395Z,9.30
2019-02-07T09:19:46.520Z,8.80
2019-02-07T09:20:46.431Z,9.90
2019-02-07T09:21:46.453Z,9.10
2019-02-07T09:22:46.461Z,10.20
2019-02-07T09:23:46.481Z,9.20
2019-02-07T09:24:46.494Z,10.20
2019-02-07T09:25:46.514Z,9.60
2019-02-07T09:26:46.527Z,9.00
2019-02-07T09:27:46.552Z,9.70
2019-02-07T09:28:46.560Z,9.90
2019-02-07T09:29:46.577Z,9.80
2019-02-07T09:30:46.595Z,10.10
2019-02-07T09:31:46.611Z,11.30
2019-02-07T09:32:46.629Z,10.10
2019-02-07T09:33:46.642Z,9.20
2019-02-07T09:34:46.669Z,8.90
2019-02-07T09:35:46.680Z,9.20
2019-02-07T09:36:46.701Z,9.30
2019-02-07T09:37:46.719Z,9.70
2019-02-07T09:38:46.734Z,9.00
2019-02-07T09:39:46.741Z,9.00
2019-02-07T09:40:46.765Z,8.90
2019-02-07T09:41:46.776Z,8.80
2019-02-07T09:42:46.793Z,9.20
2019-02-07T09:43:46.811Z,7.90
2019-02-07T09:44:46.826Z,8.60
2019-02-07T09:45:46.840Z,8.40
2019-02-07T09:46:46.860Z,9.00
2019-02-07T09:47:46.877Z,8.70
2019-02-07T09:48:46.897Z,9.00
2019-02-07T09:49:46.907Z,8.50
2019-02-07T09:50:46.923Z,8.10
2019-02-07T09:51:46.940Z,9.60
2019-02-07T09:52:46.963Z,8.40
2019-02-07T09:53:46.976Z,8.70
2019-02-07T09:54:46.997Z,8.70
2019-02-07T09:55:47.016Z,9.00
2019-02-07T09:56:47.029Z,8.10
2019-02-07T09:57:47.040Z,8.70
2019-02-07T09:58:47.067Z,8.60
2019-02-07T09:59:47.076Z,9.00
2019-02-07T10:00:47.097Z,9.40
2019-02-07T10:01:47.107Z,9.40
2019-02-07T10:02:47.126Z,8.70
2019-02-07T10:03:47.145Z,8.10
2019-02-07T10:04:47.161Z,8.20
2019-02-07T10:05:47.176Z,8.70
2019-02-07T10:06:47.199Z,9.00
2019-02-07T10:07:47.218Z,8.50
2019-02-07T10:08:47.226Z,9.00
2019-02-07T10:09:47.243Z,8.10
2019-02-07T10:10:47.258Z,7.80
2019-02-07T10:11:47.275Z,7.60
2019-02-07T10:12:47.294Z,8.00
2019-02-07T10:13:47.310Z,8.50
2019-02-07T10:14:47.332Z,8.10
2019-02-07T10:15:47.352Z,9.00
2019-02-07T10:16:47.361Z,8.40
2019-02-07T10:17:47.384Z,8.10
2019-02-07T10:18:47.393Z,8.30
2019-02-07T10:19:47.419Z,7.80
2019-02-07T10:20:47.431Z,8.10
2019-02-07T10:21:47.444Z,7.90
2019-02-07T10:22:47.468Z,8.10
2019-02-07T10:23:47.478Z,7.30
2019-02-07T10:24:47.500Z,7.70
2019-02-07T10:25:47.514Z,8.00
2019-02-07T10:26:47.529Z,7.10
2019-02-07T10:27:47.547Z,7.10
2019-02-07T10:28:47.566Z,6.50
2019-02-07T10:29:47.583Z,7.30
2019-02-07T10:30:47.599Z,6.50
2019-02-07T10:31:47.618Z,5.90
2019-02-07T10:32:47.632Z,5.90
2019-02-07T10:33:47.652Z,5.80
2019-02-07T10:34:47.665Z,5.70
2019-02-07T10:35:47.687Z,6.10
2019-02-07T10:36:47.701Z,4.70
2019-02-07T10:37:47.748Z,6.30
2019-02-07T10:38:47.734Z,5.20
2019-02-07T10:39:47.755Z,5.80
2019-02-07T10:40:47.771Z,6.70
2019-02-07T10:41:47.792Z,5.90
2019-02-07T10:42:47.809Z,5.20
2019-02-07T10:43:47.824Z,5.10
2019-02-07T10:44:47.840Z,5.60
2019-02-07T10:45:47.857Z,6.00
2019-02-07T10:46:47.872Z,5.90
2019-02-07T10:47:48.092Z,5.50
2019-02-07T10:48:47.906Z,6.30
2019-02-07T10:49:58.662Z,5.90
2019-02-07T10:50:47.943Z,6.40
2019-02-07T10:51:47.959Z,7.80
2019-02-07T10:52:47.978Z,6.60
2019-02-07T10:53:47.995Z,6.20
2019-02-07T10:54:48.012Z,6.80
2019-02-07T10:55:48.050Z,6.50
2019-02-07T10:56:48.047Z,5.30
2019-02-07T10:57:48.070Z,5.10
2019-02-07T10:58:48.089Z,4.70
2019-02-07T10:59:48.097Z,4.50
2019-02-07T11:00:48.117Z,5.00
2019-02-07T11:01:48.132Z,5.40
2019-02-07T11:02:48.151Z,3.80
2019-02-07T11:03:48.166Z,4.00
2019-02-07T11:04:48.191Z,4.00
2019-02-07T11:05:48.202Z,3.70
2019-02-07T11:06:48.221Z,4.40
2019-02-07T11:07:48.243Z,3.90
2019-02-07T11:08:48.255Z,3.90
2019-02-07T11:09:48.271Z,3.70
2019-02-07T11:10:48.299Z,3.80
2019-02-07T11:11:48.316Z,5.00
2019-02-07T11:12:48.328Z,4.20
2019-02-07T11:13:48.345Z,4.00
2019-02-07T11:14:48.451Z,4.40
2019-02-07T11:15:48.378Z,3.70
2019-02-07T11:16:48.404Z,4.50
2019-02-07T11:17:48.422Z,3.30
2019-02-07T11:18:55.250Z,3.60
2019-02-07T11:19:48.457Z,4.50
2019-02-07T11:20:48.469Z,3.40
2019-02-07T11:21:48.483Z,5.00
2019-02-07T11:22:48.510Z,4.30
2019-02-07T11:23:48.519Z,4.70
2019-02-07T11:24:48.637Z,3.60
2019-02-07T11:25:48.553Z,3.40
2019-02-07T11:26:48.571Z,3.60
2019-02-07T11:27:48.592Z,3.80
2019-02-07T11:28:48.607Z,3.90
2019-02-07T11:29:48.624Z,3.80
2019-02-07T11:30:48.642Z,3.70
2019-02-07T11:31:48.662Z,4.40
2019-02-07T11:32:48.679Z,3.80
2019-02-07T11:33:48.696Z,4.00
2019-02-07T11:34:48.716Z,4.10
2019-02-07T11:35:48.734Z,4.80
2019-02-07T11:36:54.238Z,4.20
2019-02-07T11:37:48.775Z,3.80
2019-02-07T11:38:48.793Z,3.10
2019-02-07T11:39:48.810Z,5.30
2019-02-07T11:40:48.822Z,5.90
2019-02-07T11:41:48.837Z,4.90
2019-02-07T11:42:48.857Z,4.90
2019-02-07T11:43:48.881Z,3.60
2019-02-07T11:44:50.692Z,4.70
2019-02-07T11:45:48.913Z,4.70
2019-02-07T11:46:49.121Z,5.40
2019-02-07T11:47:48.944Z,4.50
2019-02-07T11:48:48.964Z,4.70
2019-02-07T11:49:48.986Z,4.00
2019-02-07T11:50:48.997Z,5.90
2019-02-07T11:51:49.024Z,4.80
2019-02-07T11:52:49.040Z,4.30
2019-02-07T11:53:49.053Z,5.00
2019-02-07T11:54:49.078Z,4.70
2019-02-07T11:55:49.089Z,4.60
2019-02-07T11:56:49.112Z,4.40
2019-02-07T11:57:49.123Z,4.50
2019-02-07T11:58:49.145Z,3.40
2019-02-07T11:59:49.171Z,3.70
2019-02-07T12:00:49.946Z,3.20
2019-02-07T12:01:49.195Z,4.00
2019-02-07T12:02:49.212Z,3.90
2019-02-07T12:03:49.229Z,3.90
2019-02-07T12:04:49.249Z,4.10
2019-02-07T12:05:49.272Z,4.30
2019-02-07T12:06:49.284Z,4.70
2019-02-07T12:07:49.301Z,3.80
2019-02-07T12:08:49.327Z,4.50
2019-02-07T12:09:49.339Z,3.90
2019-02-07T12:10:49.358Z,4.10
2019-02-07T12:11:49.372Z,4.10
2019-02-07T12:12:49.442Z,4.30
2019-02-07T12:13:49.412Z,3.60
2019-02-07T12:14:49.428Z,3.70
2019-02-07T12:15:49.445Z,4.40
2019-02-07T12:16:49.470Z,4.80
2019-02-07T12:17:49.478Z,3.60
2019-02-07T12:18:49.497Z,4.60
2019-02-07T12:19:49.516Z,4.70
2019-02-07T12:20:49.534Z,4.50
2019-02-07T12:21:49.552Z,4.00
2019-02-07T12:22:49.568Z,3.80
2019-02-07T12:23:49.585Z,4.10
2019-02-07T12:24:49.612Z,3.90
2019-02-07T12:25:49.624Z,4.20
2019-02-07T12:26:49.638Z,3.90
2019-02-07T12:27:49.656Z,4.60
2019-02-07T12:28:49.675Z,4.90
2019-02-07T12:29:49.694Z,3.90
2019-02-07T12:30:49.710Z,4.30
2019-02-07T12:31:49.727Z,4.00
2019-02-07T12:32:49.753Z,4.10
2019-02-07T12:33:49.767Z,3.70
2019-02-07T12:34:49.781Z,3.90
2019-02-07T12:35:49.800Z,4.10
2019-02-07T12:36:49.820Z,3.90
2019-02-07T12:37:49.838Z,4.30
2019-02-07T12:38:49.854Z,4.30
2019-02-07T12:39:49.911Z,4.00
2019-02-07T12:40:49.894Z,4.30
2019-02-07T12:41:49.906Z,4.20
2019-02-07T12:42:50.075Z,4.20
2019-02-07T12:43:49.945Z,4.30
2019-02-07T12:44:49.962Z,4.10
2019-02-07T12:45:49.979Z,4.00
2019-02-07T12:46:49.998Z,4.20
2019-02-07T12:47:50.019Z,4.70
2019-02-07T12:48:50.032Z,4.30
2019-02-07T12:49:50.049Z,3.40
2019-02-07T12:50:50.072Z,3.80
2019-02-07T12:51:50.086Z,4.30
2019-02-07T12:52:50.106Z,3.40
2019-02-07T12:53:50.122Z,4.30
2019-02-07T12:54:50.140Z,4.60
2019-02-07T12:55:52.405Z,5.10
2019-02-07T12:56:50.177Z,3.60
2019-02-07T12:57:50.198Z,3.60
2019-02-07T12:58:50.210Z,4.20
2019-02-07T12:59:50.228Z,3.80
2019-02-07T13:00:50.249Z,4.90
2019-02-07T13:01:50.263Z,4.80
2019-02-07T13:02:50.281Z,3.80
2019-02-07T13:03:50.301Z,4.30
2019-02-07T13:04:50.325Z,4.80
2019-02-07T13:05:50.339Z,4.40
2019-02-07T13:06:50.359Z,4.50
2019-02-07T13:07:50.373Z,4.00
2019-02-07T13:08:50.390Z,5.00
2019-02-07T13:09:50.416Z,3.90
2019-02-07T13:10:50.424Z,3.60
2019-02-07T13:11:50.444Z,3.70
2019-02-07T13:12:50.619Z,4.10